sensor_id;sensor_type;location;lat;lon;timestamp;P1;durP1;ratioP1;P2;durP2;ratioP2
48703;SDS011;34502;51.296;16.918;2024-02-23T07:27:30;4.47;;;2.60;;
48703;SDS011;34502;51.296;16.918;2024-02-23T07:29:57;3.60;;;2.50;;
48703;SDS011;34502;51.296;16.918;2024-02-23T07:32:23;2.08;;;1.88;;
48703;SDS011;34502;51.296;16.918;2024-02-23T07:34:50;2.80;;;2.25;;
48703;SDS011;34502;51.296;16.918;2024-02-23T07:37:16;3.47;;;2.50;;
48703;SDS011;34502;51.296;16.918;2024-02-23T07:39:42;2.40;;;1.80;;
48703;SDS011;34502;51.296;16.918;2024-02-23T07:42:08;2.97;;;2.30;;
48703;SDS011;34502;51.296;16.918;2024-02-23T07:44:35;2.95;;;2.20;;
48703;SDS011;34502;51.296;16.918;2024-02-23T07:47:02;4.28;;;2.13;;
48703;SDS011;34502;51.296;16.918;2024-02-23T07:49:29;2.22;;;1.98;;
48703;SDS011;34502;51.296;16.918;2024-02-23T07:51:55;3.45;;;2.10;;
48703;SDS011;34502;51.296;16.918;2024-02-23T07:54:21;3.45;;;2.15;;
48703;SDS011;34502;51.296;16.918;2024-02-23T07:56:47;5.50;;;2.60;;
48703;SDS011;34502;51.296;16.918;2024-02-23T07:59:14;5.35;;;2.50;;
48703;SDS011;34502;51.296;16.918;2024-02-23T08:01:40;3.88;;;2.42;;
48703;SDS011;34502;51.296;16.918;2024-02-23T08:04:06;3.35;;;2.53;;
48703;SDS011;34502;51.296;16.918;2024-02-23T08:06:32;2.78;;;2.08;;
48703;SDS011;34502;51.296;16.918;2024-02-23T08:08:58;4.03;;;1.80;;
48703;SDS011;34502;51.296;16.918;2024-02-23T08:11:24;1.90;;;1.70;;
48703;SDS011;34502;51.296;16.918;2024-02-23T08:13:50;2.40;;;1.88;;
48703;SDS011;34502;51.296;16.918;2024-02-23T08:16:16;4.75;;;1.73;;
48703;SDS011;34502;51.296;16.918;2024-02-23T08:18:43;5.63;;;1.85;;
48703;SDS011;34502;51.296;16.918;2024-02-23T08:21:12;6.72;;;2.85;;
48703;SDS011;34502;51.296;16.918;2024-02-23T08:23:38;6.32;;;2.35;;
48703;SDS011;34502;51.296;16.918;2024-02-23T08:26:05;11.13;;;2.50;;
48703;SDS011;34502;51.296;16.918;2024-02-23T08:28:33;2.95;;;1.23;;
48703;SDS011;34502;51.296;16.918;2024-02-23T08:30:59;0.85;;;0.57;;
48703;SDS011;34502;51.296;16.918;2024-02-23T08:33:25;1.00;;;0.40;;
48703;SDS011;34502;51.296;16.918;2024-02-23T08:35:51;2.40;;;0.50;;
48703;SDS011;34502;51.296;16.918;2024-02-23T08:38:17;0.93;;;0.40;;
48703;SDS011;34502;51.296;16.918;2024-02-23T08:40:43;0.80;;;0.40;;
48703;SDS011;34502;51.296;16.918;2024-02-23T08:43:13;1.23;;;0.50;;
48703;SDS011;34502;51.296;16.918;2024-02-23T08:45:39;1.75;;;0.47;;
48703;SDS011;34502;51.296;16.918;2024-02-23T08:48:06;0.57;;;0.40;;
48703;SDS011;34502;51.296;16.918;2024-02-23T08:50:32;1.48;;;0.80;;
48703;SDS011;34502;51.296;16.918;2024-02-23T08:52:59;0.65;;;0.40;;
48703;SDS011;34502;51.296;16.918;2024-02-23T08:55:25;1.33;;;0.50;;
48703;SDS011;34502;51.296;16.918;2024-02-23T08:57:51;1.27;;;0.75;;
48703;SDS011;34502;51.296;16.918;2024-02-23T09:00:17;0.40;;;0.38;;
48703;SDS011;34502;51.296;16.918;2024-02-23T09:02:44;1.95;;;0.40;;
48703;SDS011;34502;51.296;16.918;2024-02-23T09:05:10;5.35;;;1.67;;
48703;SDS011;34502;51.296;16.918;2024-02-23T09:07:36;3.15;;;1.10;;
48703;SDS011;34502;51.296;16.918;2024-02-23T09:10:02;2.38;;;1.48;;
48703;SDS011;34502;51.296;16.918;2024-02-23T09:12:30;7.25;;;2.20;;
48703;SDS011;34502;51.296;16.918;2024-02-23T09:14:56;5.65;;;2.20;;
48703;SDS011;34502;51.296;16.918;2024-02-23T09:17:22;5.15;;;1.85;;
48703;SDS011;34502;51.296;16.918;2024-02-23T09:19:48;3.83;;;2.03;;
48703;SDS011;34502;51.296;16.918;2024-02-23T09:22:14;1.73;;;0.70;;
48703;SDS011;34502;51.296;16.918;2024-02-23T09:24:40;2.13;;;1.00;;
48703;SDS011;34502;51.296;16.918;2024-02-23T09:27:07;2.75;;;0.80;;
48703;SDS011;34502;51.296;16.918;2024-02-23T09:29:33;3.17;;;1.92;;
48703;SDS011;34502;51.296;16.918;2024-02-23T09:32:00;4.32;;;1.83;;
48703;SDS011;34502;51.296;16.918;2024-02-23T09:34:26;4.32;;;2.45;;
48703;SDS011;34502;51.296;16.918;2024-02-23T09:36:52;3.05;;;1.35;;
48703;SDS011;34502;51.296;16.918;2024-02-23T09:39:18;9.27;;;3.67;;
48703;SDS011;34502;51.296;16.918;2024-02-23T09:41:45;5.03;;;1.85;;
48703;SDS011;34502;51.296;16.918;2024-02-23T09:44:12;5.30;;;1.85;;
48703;SDS011;34502;51.296;16.918;2024-02-23T09:46:39;5.78;;;1.70;;
48703;SDS011;34502;51.296;16.918;2024-02-23T09:49:07;2.75;;;1.42;;
48703;SDS011;34502;51.296;16.918;2024-02-23T09:51:35;3.60;;;1.17;;
48703;SDS011;34502;51.296;16.918;2024-02-23T09:54:02;3.08;;;1.33;;
48703;SDS011;34502;51.296;16.918;2024-02-23T09:56:28;5.90;;;1.88;;
48703;SDS011;34502;51.296;16.918;2024-02-23T09:58:59;9.65;;;3.17;;
48703;SDS011;34502;51.296;16.918;2024-02-23T10:01:30;5.40;;;2.40;;
48703;SDS011;34502;51.296;16.918;2024-02-23T10:03:58;4.93;;;3.00;;
48703;SDS011;34502;51.296;16.918;2024-02-23T10:06:25;4.55;;;2.10;;
48703;SDS011;34502;51.296;16.918;2024-02-23T10:08:52;1.55;;;0.90;;
48703;SDS011;34502;51.296;16.918;2024-02-23T10:11:21;2.85;;;1.25;;
48703;SDS011;34502;51.296;16.918;2024-02-23T10:13:48;2.75;;;1.60;;
48703;SDS011;34502;51.296;16.918;2024-02-23T10:16:15;5.38;;;1.60;;
48703;SDS011;34502;51.296;16.918;2024-02-23T10:18:42;3.67;;;1.10;;
48703;SDS011;34502;51.296;16.918;2024-02-23T10:21:08;4.50;;;2.13;;
48703;SDS011;34502;51.296;16.918;2024-02-23T10:23:35;3.00;;;1.25;;
48703;SDS011;34502;51.296;16.918;2024-02-23T10:26:01;3.08;;;0.85;;
48703;SDS011;34502;51.296;16.918;2024-02-23T10:28:29;2.17;;;0.60;;
48703;SDS011;34502;51.296;16.918;2024-02-23T10:30:56;2.30;;;1.05;;
48703;SDS011;34502;51.296;16.918;2024-02-23T10:33:22;1.33;;;0.73;;
48703;SDS011;34502;51.296;16.918;2024-02-23T10:35:51;2.03;;;1.40;;
48703;SDS011;34502;51.296;16.918;2024-02-23T10:38:23;7.55;;;1.70;;
48703;SDS011;34502;51.296;16.918;2024-02-23T10:40:50;1.77;;;0.70;;
48703;SDS011;34502;51.296;16.918;2024-02-23T10:43:17;3.85;;;0.75;;
48703;SDS011;34502;51.296;16.918;2024-02-23T10:45:47;1.73;;;1.00;;
48703;SDS011;34502;51.296;16.918;2024-02-23T10:48:14;2.90;;;0.93;;
48703;SDS011;34502;51.296;16.918;2024-02-23T10:50:41;1.15;;;0.60;;
48703;SDS011;34502;51.296;16.918;2024-02-23T10:53:09;3.22;;;0.70;;
48703;SDS011;34502;51.296;16.918;2024-02-23T10:55:36;1.10;;;0.60;;
48703;SDS011;34502;51.296;16.918;2024-02-23T10:58:08;2.15;;;0.77;;
48703;SDS011;34502;51.296;16.918;2024-02-23T11:00:37;6.35;;;1.75;;
48703;SDS011;34502;51.296;16.918;2024-02-23T11:03:03;2.10;;;1.02;;
48703;SDS011;34502;51.296;16.918;2024-02-23T11:05:31;1.25;;;0.50;;
48703;SDS011;34502;51.296;16.918;2024-02-23T11:07:58;1.15;;;0.50;;
48703;SDS011;34502;51.296;16.918;2024-02-23T11:10:24;1.77;;;0.50;;
48703;SDS011;34502;51.296;16.918;2024-02-23T11:12:59;2.03;;;1.02;;
48703;SDS011;34502;51.296;16.918;2024-02-23T11:15:26;6.93;;;2.88;;
48703;SDS011;34502;51.296;16.918;2024-02-23T11:17:53;4.55;;;2.15;;
48703;SDS011;34502;51.296;16.918;2024-02-23T11:20:19;4.15;;;1.50;;
48703;SDS011;34502;51.296;16.918;2024-02-23T11:22:51;7.38;;;1.83;;
48703;SDS011;34502;51.296;16.918;2024-02-23T11:25:19;3.70;;;1.33;;
48703;SDS011;34502;51.296;16.918;2024-02-23T11:27:48;3.70;;;1.10;;
48703;SDS011;34502;51.296;16.918;2024-02-23T11:30:16;2.63;;;1.10;;
48703;SDS011;34502;51.296;16.918;2024-02-23T11:32:43;3.40;;;1.73;;
48703;SDS011;34502;51.296;16.918;2024-02-23T11:35:12;3.45;;;1.98;;
48703;SDS011;34502;51.296;16.918;2024-02-23T11:40:16;4.85;;;2.10;;
48703;SDS011;34502;51.296;16.918;2024-02-23T11:42:43;1.73;;;1.10;;
48703;SDS011;34502;51.296;16.918;2024-02-23T11:45:09;4.20;;;1.20;;
48703;SDS011;34502;51.296;16.918;2024-02-23T11:47:39;4.10;;;1.67;;
48703;SDS011;34502;51.296;16.918;2024-02-23T11:50:09;2.15;;;0.70;;
48703;SDS011;34502;51.296;16.918;2024-02-23T11:52:38;1.13;;;0.60;;
48703;SDS011;34502;51.296;16.918;2024-02-23T11:55:05;3.42;;;0.52;;
48703;SDS011;34502;51.296;16.918;2024-02-23T11:57:32;0.85;;;0.63;;
48703;SDS011;34502;51.296;16.918;2024-02-23T12:00:00;2.75;;;0.55;;
48703;SDS011;34502;51.296;16.918;2024-02-23T12:02:28;1.67;;;0.70;;
48703;SDS011;34502;51.296;16.918;2024-02-23T12:04:54;1.27;;;0.50;;
48703;SDS011;34502;51.296;16.918;2024-02-23T12:07:20;1.75;;;0.90;;
48703;SDS011;34502;51.296;16.918;2024-02-23T12:09:47;3.97;;;0.80;;
48703;SDS011;34502;51.296;16.918;2024-02-23T12:12:14;1.50;;;0.73;;
48703;SDS011;34502;51.296;16.918;2024-02-23T12:14:40;1.02;;;0.85;;
48703;SDS011;34502;51.296;16.918;2024-02-23T12:17:07;3.25;;;0.75;;
48703;SDS011;34502;51.296;16.918;2024-02-23T12:19:40;2.13;;;0.73;;
48703;SDS011;34502;51.296;16.918;2024-02-23T12:22:06;4.60;;;1.30;;
48703;SDS011;34502;51.296;16.918;2024-02-23T12:24:34;4.60;;;1.17;;
48703;SDS011;34502;51.296;16.918;2024-02-23T12:27:00;2.13;;;1.15;;
48703;SDS011;34502;51.296;16.918;2024-02-23T12:29:26;2.30;;;0.80;;
48703;SDS011;34502;51.296;16.918;2024-02-23T12:32:02;2.80;;;0.73;;
48703;SDS011;34502;51.296;16.918;2024-02-23T12:34:29;0.98;;;0.70;;
48703;SDS011;34502;51.296;16.918;2024-02-23T12:36:55;3.05;;;0.85;;
48703;SDS011;34502;51.296;16.918;2024-02-23T12:39:21;2.55;;;0.80;;
48703;SDS011;34502;51.296;16.918;2024-02-23T12:41:47;1.00;;;0.68;;
48703;SDS011;34502;51.296;16.918;2024-02-23T12:44:15;2.38;;;0.80;;
48703;SDS011;34502;51.296;16.918;2024-02-23T12:46:41;2.25;;;0.90;;
48703;SDS011;34502;51.296;16.918;2024-02-23T12:49:07;1.55;;;0.73;;
48703;SDS011;34502;51.296;16.918;2024-02-23T12:51:34;0.98;;;0.85;;
48703;SDS011;34502;51.296;16.918;2024-02-23T12:54:00;2.25;;;0.80;;
48703;SDS011;34502;51.296;16.918;2024-02-23T12:56:26;1.20;;;0.80;;
48703;SDS011;34502;51.296;16.918;2024-02-23T12:58:52;4.18;;;1.30;;
48703;SDS011;34502;51.296;16.918;2024-02-23T13:01:19;1.15;;;0.80;;
48703;SDS011;34502;51.296;16.918;2024-02-23T13:03:45;1.50;;;0.80;;
48703;SDS011;34502;51.296;16.918;2024-02-23T13:06:11;1.85;;;1.10;;
48703;SDS011;34502;51.296;16.918;2024-02-23T13:08:38;1.77;;;0.95;;
48703;SDS011;34502;51.296;16.918;2024-02-23T13:11:05;2.30;;;0.73;;
48703;SDS011;34502;51.296;16.918;2024-02-23T13:13:31;2.22;;;0.90;;
48703;SDS011;34502;51.296;16.918;2024-02-23T13:15:58;1.58;;;0.80;;
48703;SDS011;34502;51.296;16.918;2024-02-23T13:18:24;3.15;;;0.80;;
48703;SDS011;34502;51.296;16.918;2024-02-23T13:20:50;2.78;;;1.33;;
48703;SDS011;34502;51.296;16.918;2024-02-23T13:23:16;2.25;;;0.80;;
48703;SDS011;34502;51.296;16.918;2024-02-23T13:25:44;4.78;;;1.17;;
48703;SDS011;34502;51.296;16.918;2024-02-23T13:28:11;2.05;;;1.20;;
48703;SDS011;34502;51.296;16.918;2024-02-23T13:30:37;5.90;;;1.52;;
48703;SDS011;34502;51.296;16.918;2024-02-23T13:33:04;1.15;;;0.80;;
48703;SDS011;34502;51.296;16.918;2024-02-23T13:35:31;2.15;;;1.42;;
48703;SDS011;34502;51.296;16.918;2024-02-23T13:37:57;1.52;;;1.17;;
48703;SDS011;34502;51.296;16.918;2024-02-23T13:40:24;4.25;;;1.70;;
48703;SDS011;34502;51.296;16.918;2024-02-23T13:42:50;1.88;;;1.23;;
48703;SDS011;34502;51.296;16.918;2024-02-23T13:45:18;1.92;;;1.15;;
48703;SDS011;34502;51.296;16.918;2024-02-23T13:47:55;1.45;;;1.10;;
48703;SDS011;34502;51.296;16.918;2024-02-23T13:50:25;2.45;;;1.30;;
48703;SDS011;34502;51.296;16.918;2024-02-23T13:52:51;1.85;;;1.15;;
48703;SDS011;34502;51.296;16.918;2024-02-23T13:55:17;5.18;;;2.25;;
48703;SDS011;34502;51.296;16.918;2024-02-23T13:57:47;5.97;;;3.50;;
48703;SDS011;34502;51.296;16.918;2024-02-23T14:00:14;5.53;;;2.78;;
48703;SDS011;34502;51.296;16.918;2024-02-23T14:02:41;5.47;;;2.65;;
48703;SDS011;34502;51.296;16.918;2024-02-23T14:05:08;8.07;;;2.08;;
48703;SDS011;34502;51.296;16.918;2024-02-23T14:07:34;11.07;;;5.47;;
48703;SDS011;34502;51.296;16.918;2024-02-23T14:10:00;4.15;;;1.88;;
48703;SDS011;34502;51.296;16.918;2024-02-23T14:12:27;7.80;;;4.15;;
48703;SDS011;34502;51.296;16.918;2024-02-23T14:14:54;3.05;;;2.08;;
48703;SDS011;34502;51.296;16.918;2024-02-23T14:17:20;3.22;;;1.23;;
48703;SDS011;34502;51.296;16.918;2024-02-23T14:19:46;3.38;;;1.30;;
48703;SDS011;34502;51.296;16.918;2024-02-23T14:22:13;3.92;;;1.63;;
48703;SDS011;34502;51.296;16.918;2024-02-23T14:24:39;2.88;;;1.23;;
48703;SDS011;34502;51.296;16.918;2024-02-23T14:27:05;3.53;;;1.40;;
48703;SDS011;34502;51.296;16.918;2024-02-23T14:29:32;3.22;;;1.33;;
48703;SDS011;34502;51.296;16.918;2024-02-23T14:31:59;1.95;;;1.50;;
48703;SDS011;34502;51.296;16.918;2024-02-23T14:34:26;5.07;;;1.73;;
48703;SDS011;34502;51.296;16.918;2024-02-23T14:36:52;7.20;;;3.00;;
48703;SDS011;34502;51.296;16.918;2024-02-23T14:39:18;2.72;;;1.83;;
48703;SDS011;34502;51.296;16.918;2024-02-23T14:41:46;2.97;;;2.00;;
48703;SDS011;34502;51.296;16.918;2024-02-23T14:44:13;3.45;;;1.70;;
48703;SDS011;34502;51.296;16.918;2024-02-23T14:46:39;4.40;;;1.70;;
48703;SDS011;34502;51.296;16.918;2024-02-23T14:49:06;4.55;;;1.75;;
48703;SDS011;34502;51.296;16.918;2024-02-23T14:51:32;3.83;;;2.10;;
48703;SDS011;34502;51.296;16.918;2024-02-23T14:54:00;2.88;;;1.60;;
48703;SDS011;34502;51.296;16.918;2024-02-23T14:56:27;4.22;;;1.92;;
48703;SDS011;34502;51.296;16.918;2024-02-23T14:58:53;6.57;;;2.78;;
48703;SDS011;34502;51.296;16.918;2024-02-23T15:01:20;3.25;;;1.73;;
48703;SDS011;34502;51.296;16.918;2024-02-23T15:03:46;4.88;;;2.00;;
48703;SDS011;34502;51.296;16.918;2024-02-23T15:06:13;5.50;;;2.30;;
48703;SDS011;34502;51.296;16.918;2024-02-23T15:08:39;4.50;;;2.20;;
48703;SDS011;34502;51.296;16.918;2024-02-23T15:11:05;5.20;;;2.80;;
48703;SDS011;34502;51.296;16.918;2024-02-23T15:13:31;3.00;;;2.20;;
48703;SDS011;34502;51.296;16.918;2024-02-23T15:15:57;5.57;;;2.42;;
48703;SDS011;34502;51.296;16.918;2024-02-23T15:18:24;5.22;;;2.53;;
48703;SDS011;34502;51.296;16.918;2024-02-23T15:20:50;5.10;;;3.08;;
48703;SDS011;34502;51.296;16.918;2024-02-23T15:23:17;4.20;;;1.95;;
48703;SDS011;34502;51.296;16.918;2024-02-23T15:25:43;4.95;;;1.92;;
48703;SDS011;34502;51.296;16.918;2024-02-23T15:28:09;4.53;;;2.50;;
48703;SDS011;34502;51.296;16.918;2024-02-23T15:30:36;5.70;;;3.75;;
48703;SDS011;34502;51.296;16.918;2024-02-23T15:33:02;5.88;;;3.10;;
48703;SDS011;34502;51.296;16.918;2024-02-23T15:35:28;13.30;;;8.73;;
48703;SDS011;34502;51.296;16.918;2024-02-23T15:37:55;21.25;;;11.60;;
48703;SDS011;34502;51.296;16.918;2024-02-23T15:40:21;15.90;;;10.23;;
48703;SDS011;34502;51.296;16.918;2024-02-23T15:42:47;16.83;;;10.75;;
48703;SDS011;34502;51.296;16.918;2024-02-23T15:45:15;12.80;;;8.82;;
48703;SDS011;34502;51.296;16.918;2024-02-23T15:47:42;13.70;;;7.47;;
48703;SDS011;34502;51.296;16.918;2024-02-23T15:50:08;11.73;;;7.85;;
48703;SDS011;34502;51.296;16.918;2024-02-23T15:52:36;15.55;;;7.30;;
48703;SDS011;34502;51.296;16.918;2024-02-23T15:55:02;10.93;;;7.22;;
48703;SDS011;34502;51.296;16.918;2024-02-23T15:57:29;9.73;;;5.13;;
48703;SDS011;34502;51.296;16.918;2024-02-23T15:59:55;9.27;;;5.65;;
48703;SDS011;34502;51.296;16.918;2024-02-23T16:02:22;7.75;;;4.82;;
48703;SDS011;34502;51.296;16.918;2024-02-23T16:04:48;5.10;;;3.50;;
48703;SDS011;34502;51.296;16.918;2024-02-23T16:07:14;4.63;;;2.60;;
48703;SDS011;34502;51.296;16.918;2024-02-23T16:09:40;7.75;;;3.47;;
48703;SDS011;34502;51.296;16.918;2024-02-23T16:12:07;6.25;;;3.50;;
48703;SDS011;34502;51.296;16.918;2024-02-23T16:14:35;4.22;;;2.30;;
48703;SDS011;34502;51.296;16.918;2024-02-23T16:17:01;3.63;;;2.38;;
48703;SDS011;34502;51.296;16.918;2024-02-23T16:19:28;4.85;;;2.25;;
48703;SDS011;34502;51.296;16.918;2024-02-23T16:21:55;4.68;;;2.00;;
48703;SDS011;34502;51.296;16.918;2024-02-23T16:24:21;6.85;;;2.33;;
48703;SDS011;34502;51.296;16.918;2024-02-23T16:26:47;4.90;;;2.33;;
48703;SDS011;34502;51.296;16.918;2024-02-23T16:29:13;5.40;;;1.98;;
48703;SDS011;34502;51.296;16.918;2024-02-23T16:31:40;3.95;;;1.80;;
48703;SDS011;34502;51.296;16.918;2024-02-23T16:34:06;3.80;;;1.83;;
48703;SDS011;34502;51.296;16.918;2024-02-23T16:36:33;4.22;;;2.00;;
48703;SDS011;34502;51.296;16.918;2024-02-23T16:38:59;4.78;;;2.08;;
48703;SDS011;34502;51.296;16.918;2024-02-23T16:41:25;3.95;;;1.88;;
48703;SDS011;34502;51.296;16.918;2024-02-23T16:43:51;4.35;;;2.20;;
48703;SDS011;34502;51.296;16.918;2024-02-23T16:46:19;3.92;;;2.80;;
48703;SDS011;34502;51.296;16.918;2024-02-23T16:48:45;6.38;;;4.00;;
48703;SDS011;34502;51.296;16.918;2024-02-23T16:51:11;4.15;;;2.17;;
48703;SDS011;34502;51.296;16.918;2024-02-23T16:53:38;7.38;;;2.42;;
48703;SDS011;34502;51.296;16.918;2024-02-23T16:56:04;4.47;;;2.65;;
48703;SDS011;34502;51.296;16.918;2024-02-23T16:58:31;5.00;;;2.92;;
48703;SDS011;34502;51.296;16.918;2024-02-23T17:01:03;4.85;;;3.13;;
48703;SDS011;34502;51.296;16.918;2024-02-23T17:03:31;4.72;;;3.05;;
48703;SDS011;34502;51.296;16.918;2024-02-23T17:05:57;3.60;;;2.10;;
48703;SDS011;34502;51.296;16.918;2024-02-23T17:08:26;5.03;;;2.25;;
48703;SDS011;34502;51.296;16.918;2024-02-23T17:10:52;4.07;;;2.60;;
48703;SDS011;34502;51.296;16.918;2024-02-23T17:13:18;3.92;;;2.05;;
48703;SDS011;34502;51.296;16.918;2024-02-23T17:15:45;4.03;;;2.55;;
48703;SDS011;34502;51.296;16.918;2024-02-23T17:18:11;4.93;;;2.92;;
48703;SDS011;34502;51.296;16.918;2024-02-23T17:20:38;3.83;;;2.30;;
48703;SDS011;34502;51.296;16.918;2024-02-23T17:23:04;7.82;;;2.25;;
48703;SDS011;34502;51.296;16.918;2024-02-23T17:25:31;3.22;;;2.20;;
48703;SDS011;34502;51.296;16.918;2024-02-23T17:28:00;5.32;;;2.83;;
48703;SDS011;34502;51.296;16.918;2024-02-23T17:30:26;4.10;;;2.60;;
48703;SDS011;34502;51.296;16.918;2024-02-23T17:32:52;3.72;;;2.47;;
48703;SDS011;34502;51.296;16.918;2024-02-23T17:35:18;4.40;;;2.55;;
48703;SDS011;34502;51.296;16.918;2024-02-23T17:37:44;4.28;;;2.90;;
48703;SDS011;34502;51.296;16.918;2024-02-23T17:40:11;11.40;;;3.45;;
48703;SDS011;34502;51.296;16.918;2024-02-23T17:42:37;5.40;;;3.03;;
48703;SDS011;34502;51.296;16.918;2024-02-23T17:45:04;6.00;;;3.33;;
48703;SDS011;34502;51.296;16.918;2024-02-23T17:47:34;8.70;;;4.07;;
48703;SDS011;34502;51.296;16.918;2024-02-23T17:50:01;6.68;;;3.60;;
48703;SDS011;34502;51.296;16.918;2024-02-23T17:52:29;6.30;;;3.67;;
48703;SDS011;34502;51.296;16.918;2024-02-23T17:54:56;6.07;;;3.45;;
48703;SDS011;34502;51.296;16.918;2024-02-23T17:57:23;7.15;;;3.85;;
48703;SDS011;34502;51.296;16.918;2024-02-23T17:59:49;5.30;;;2.97;;
48703;SDS011;34502;51.296;16.918;2024-02-23T18:02:15;4.57;;;2.70;;
48703;SDS011;34502;51.296;16.918;2024-02-23T18:04:41;4.32;;;2.70;;
48703;SDS011;34502;51.296;16.918;2024-02-23T18:07:11;4.53;;;2.55;;
48703;SDS011;34502;51.296;16.918;2024-02-23T18:09:37;5.18;;;3.00;;
48703;SDS011;34502;51.296;16.918;2024-02-23T18:12:07;5.28;;;2.88;;
48703;SDS011;34502;51.296;16.918;2024-02-23T18:14:33;5.70;;;4.25;;
48703;SDS011;34502;51.296;16.918;2024-02-23T18:16:59;6.40;;;3.63;;
48703;SDS011;34502;51.296;16.918;2024-02-23T18:19:25;7.07;;;3.17;;
48703;SDS011;34502;51.296;16.918;2024-02-23T18:21:52;6.93;;;4.00;;
48703;SDS011;34502;51.296;16.918;2024-02-23T18:24:19;7.60;;;4.57;;
48703;SDS011;34502;51.296;16.918;2024-02-23T18:26:45;8.75;;;5.13;;
48703;SDS011;34502;51.296;16.918;2024-02-23T18:29:11;8.88;;;4.93;;
48703;SDS011;34502;51.296;16.918;2024-02-23T18:31:38;6.85;;;4.50;;
48703;SDS011;34502;51.296;16.918;2024-02-23T18:34:04;8.02;;;4.78;;
48703;SDS011;34502;51.296;16.918;2024-02-23T18:36:31;7.57;;;4.57;;
48703;SDS011;34502;51.296;16.918;2024-02-23T18:38:57;10.13;;;6.53;;
48703;SDS011;34502;51.296;16.918;2024-02-23T18:41:23;7.97;;;5.70;;
48703;SDS011;34502;51.296;16.918;2024-02-23T18:43:51;10.15;;;6.05;;
48703;SDS011;34502;51.296;16.918;2024-02-23T18:46:17;11.45;;;7.22;;
48703;SDS011;34502;51.296;16.918;2024-02-23T18:48:43;9.90;;;6.70;;
48703;SDS011;34502;51.296;16.918;2024-02-23T18:51:09;9.50;;;6.30;;
48703;SDS011;34502;51.296;16.918;2024-02-23T18:53:35;8.40;;;5.25;;
48703;SDS011;34502;51.296;16.918;2024-02-23T18:56:02;8.80;;;5.50;;
48703;SDS011;34502;51.296;16.918;2024-02-23T18:58:30;9.02;;;5.88;;
48703;SDS011;34502;51.296;16.918;2024-02-23T19:00:57;8.63;;;5.80;;
48703;SDS011;34502;51.296;16.918;2024-02-23T19:03:23;12.68;;;8.10;;
48703;SDS011;34502;51.296;16.918;2024-02-23T19:05:50;13.00;;;7.68;;
48703;SDS011;34502;51.296;16.918;2024-02-23T19:08:16;12.18;;;8.00;;
48703;SDS011;34502;51.296;16.918;2024-02-23T19:10:42;14.52;;;8.25;;
48703;SDS011;34502;51.296;16.918;2024-02-23T19:13:08;12.20;;;8.18;;
48703;SDS011;34502;51.296;16.918;2024-02-23T19:15:35;10.05;;;5.88;;
48703;SDS011;34502;51.296;16.918;2024-02-23T19:18:05;11.07;;;7.13;;
48703;SDS011;34502;51.296;16.918;2024-02-23T19:20:31;11.48;;;8.02;;
48703;SDS011;34502;51.296;16.918;2024-02-23T19:22:57;12.45;;;8.88;;
48703;SDS011;34502;51.296;16.918;2024-02-23T19:25:25;13.70;;;9.15;;
48703;SDS011;34502;51.296;16.918;2024-02-23T19:27:51;16.00;;;9.18;;
48703;SDS011;34502;51.296;16.918;2024-02-23T19:30:19;15.93;;;10.93;;
48703;SDS011;34502;51.296;16.918;2024-02-23T19:32:45;19.08;;;11.73;;
48703;SDS011;34502;51.296;16.918;2024-02-23T19:35:12;21.25;;;13.48;;
48703;SDS011;34502;51.296;16.918;2024-02-23T19:37:38;14.63;;;8.80;;
48703;SDS011;34502;51.296;16.918;2024-02-23T19:40:05;15.80;;;11.70;;
48703;SDS011;34502;51.296;16.918;2024-02-23T19:42:36;14.40;;;10.55;;
48703;SDS011;34502;51.296;16.918;2024-02-23T19:45:02;17.13;;;11.52;;
48703;SDS011;34502;51.296;16.918;2024-02-23T19:47:29;13.27;;;9.30;;
48703;SDS011;34502;51.296;16.918;2024-02-23T19:49:56;16.40;;;11.38;;
48703;SDS011;34502;51.296;16.918;2024-02-23T19:52:22;18.85;;;13.50;;
48703;SDS011;34502;51.296;16.918;2024-02-23T19:54:48;21.48;;;12.75;;
48703;SDS011;34502;51.296;16.918;2024-02-23T19:57:14;18.70;;;12.25;;
48703;SDS011;34502;51.296;16.918;2024-02-23T19:59:41;19.02;;;13.07;;
48703;SDS011;34502;51.296;16.918;2024-02-23T20:02:08;18.35;;;11.52;;
48703;SDS011;34502;51.296;16.918;2024-02-23T20:04:38;16.05;;;11.55;;
48703;SDS011;34502;51.296;16.918;2024-02-23T20:07:07;17.10;;;11.68;;
48703;SDS011;34502;51.296;16.918;2024-02-23T20:09:41;14.23;;;9.68;;
48703;SDS011;34502;51.296;16.918;2024-02-23T20:12:07;17.05;;;12.02;;
48703;SDS011;34502;51.296;16.918;2024-02-23T20:14:34;16.48;;;10.82;;
48703;SDS011;34502;51.296;16.918;2024-02-23T20:17:01;13.85;;;10.73;;
48703;SDS011;34502;51.296;16.918;2024-02-23T20:19:27;18.85;;;12.63;;
48703;SDS011;34502;51.296;16.918;2024-02-23T20:21:54;20.63;;;11.80;;
48703;SDS011;34502;51.296;16.918;2024-02-23T20:24:20;18.65;;;12.60;;
48703;SDS011;34502;51.296;16.918;2024-02-23T20:26:46;17.67;;;11.88;;
48703;SDS011;34502;51.296;16.918;2024-02-23T20:29:13;17.30;;;12.45;;
48703;SDS011;34502;51.296;16.918;2024-02-23T20:31:39;22.08;;;13.02;;
48703;SDS011;34502;51.296;16.918;2024-02-23T20:34:08;19.10;;;13.95;;
48703;SDS011;34502;51.296;16.918;2024-02-23T20:36:35;28.67;;;16.90;;
48703;SDS011;34502;51.296;16.918;2024-02-23T20:39:02;26.85;;;17.23;;
48703;SDS011;34502;51.296;16.918;2024-02-23T20:41:28;24.02;;;15.63;;
48703;SDS011;34502;51.296;16.918;2024-02-23T20:43:54;25.67;;;15.48;;
48703;SDS011;34502;51.296;16.918;2024-02-23T20:46:23;19.08;;;14.18;;
48703;SDS011;34502;51.296;16.918;2024-02-23T20:48:53;27.00;;;16.63;;
48703;SDS011;34502;51.296;16.918;2024-02-23T20:51:21;104.65;;;33.47;;
48703;SDS011;34502;51.296;16.918;2024-02-23T20:53:47;106.55;;;36.05;;
48703;SDS011;34502;51.296;16.918;2024-02-23T20:56:14;99.43;;;34.53;;
48703;SDS011;34502;51.296;16.918;2024-02-23T20:58:40;37.30;;;16.80;;
48703;SDS011;34502;51.296;16.918;2024-02-23T21:01:07;20.00;;;9.68;;
48703;SDS011;34502;51.296;16.918;2024-02-23T21:03:33;10.48;;;7.75;;
48703;SDS011;34502;51.296;16.918;2024-02-23T21:06:01;14.98;;;9.60;;
48703;SDS011;34502;51.296;16.918;2024-02-23T21:08:28;11.38;;;8.85;;
48703;SDS011;34502;51.296;16.918;2024-02-23T21:10:55;24.50;;;13.75;;
48703;SDS011;34502;51.296;16.918;2024-02-23T21:13:21;20.63;;;12.55;;
48703;SDS011;34502;51.296;16.918;2024-02-23T21:15:48;32.05;;;16.70;;
48703;SDS011;34502;51.296;16.918;2024-02-23T21:18:14;36.38;;;19.85;;
48703;SDS011;34502;51.296;16.918;2024-02-23T21:20:42;40.78;;;21.67;;
48703;SDS011;34502;51.296;16.918;2024-02-23T21:23:09;43.70;;;23.05;;
48703;SDS011;34502;51.296;16.918;2024-02-23T21:25:38;35.25;;;20.92;;
48703;SDS011;34502;51.296;16.918;2024-02-23T21:28:07;34.05;;;19.55;;
48703;SDS011;34502;51.296;16.918;2024-02-23T21:30:36;27.08;;;15.65;;
48703;SDS011;34502;51.296;16.918;2024-02-23T21:33:09;26.50;;;15.32;;
48703;SDS011;34502;51.296;16.918;2024-02-23T21:35:36;26.63;;;15.00;;
48703;SDS011;34502;51.296;16.918;2024-02-23T21:38:02;26.00;;;13.65;;
48703;SDS011;34502;51.296;16.918;2024-02-23T21:40:28;23.00;;;14.27;;
48703;SDS011;34502;51.296;16.918;2024-02-23T21:42:54;23.27;;;13.50;;
48703;SDS011;34502;51.296;16.918;2024-02-23T21:45:20;19.55;;;12.05;;
48703;SDS011;34502;51.296;16.918;2024-02-23T21:47:46;14.65;;;9.65;;
48703;SDS011;34502;51.296;16.918;2024-02-23T21:50:13;15.52;;;8.70;;
48703;SDS011;34502;51.296;16.918;2024-02-23T21:52:39;12.00;;;7.45;;
48703;SDS011;34502;51.296;16.918;2024-02-23T21:55:05;14.73;;;9.23;;